sensor_id;sensor_type;location;lat;lon;timestamp;temperature;humidity
29803;DHT22;16702;50.898;4.662;2022-09-20T00:01:13;15.20;99.90
29803;DHT22;16702;50.898;4.662;2022-09-20T00:03:45;15.20;99.90
29803;DHT22;16702;50.898;4.662;2022-09-20T00:06:17;15.20;99.90
29803;DHT22;16702;50.898;4.662;2022-09-20T00:08:50;15.10;99.90
29803;DHT22;16702;50.898;4.662;2022-09-20T00:11:22;15.10;99.90
29803;DHT22;16702;50.898;4.662;2022-09-20T00:13:54;15.10;99.90
29803;DHT22;16702;50.898;4.662;2022-09-20T00:16:27;15.10;99.90
29803;DHT22;16702;50.898;4.662;2022-09-20T00:18:59;15.00;99.90
29803;DHT22;16702;50.898;4.662;2022-09-20T00:21:32;15.00;99.90
29803;DHT22;16702;50.898;4.662;2022-09-20T00:24:06;15.00;99.90
29803;DHT22;16702;50.898;4.662;2022-09-20T00:26:37;15.00;99.90
29803;DHT22;16702;50.898;4.662;2022-09-20T00:29:07;15.00;99.90
29803;DHT22;16702;50.898;4.662;2022-09-20T00:31:39;14.90;99.90
29803;DHT22;16702;50.898;4.662;2022-09-20T00:34:10;14.90;99.90
29803;DHT22;16702;50.898;4.662;2022-09-20T00:36:53;14.90;99.90
29803;DHT22;16702;50.898;4.662;2022-09-20T00:39:26;14.90;99.90
29803;DHT22;16702;50.898;4.662;2022-09-20T00:41:56;14.90;99.90
29803;DHT22;16702;50.898;4.662;2022-09-20T00:44:42;14.90;99.90
29803;DHT22;16702;50.898;4.662;2022-09-20T00:47:21;14.90;99.90
29803;DHT22;16702;50.898;4.662;2022-09-20T00:49:56;14.90;99.90
29803;DHT22;16702;50.898;4.662;2022-09-20T00:52:29;14.80;99.90
29803;DHT22;16702;50.898;4.662;2022-09-20T00:55:06;14.80;99.90
29803;DHT22;16702;50.898;4.662;2022-09-20T00:57:37;14.90;99.90
29803;DHT22;16702;50.898;4.662;2022-09-20T01:00:10;14.80;99.90
29803;DHT22;16702;50.898;4.662;2022-09-20T01:02:43;14.80;99.90
29803;DHT22;16702;50.898;4.662;2022-09-20T01:05:17;14.80;99.90
29803;DHT22;16702;50.898;4.662;2022-09-20T01:07:49;14.80;99.90
29803;DHT22;16702;50.898;4.662;2022-09-20T01:10:23;14.80;99.90
29803;DHT22;16702;50.898;4.662;2022-09-20T01:12:54;14.80;99.90
29803;DHT22;16702;50.898;4.662;2022-09-20T01:15:26;14.80;99.90
29803;DHT22;16702;50.898;4.662;2022-09-20T01:17:58;14.80;99.90
29803;DHT22;16702;50.898;4.662;2022-09-20T01:20:31;14.80;99.90
29803;DHT22;16702;50.898;4.662;2022-09-20T01:23:29;14.80;99.90
29803;DHT22;16702;50.898;4.662;2022-09-20T01:26:26;14.70;99.90
29803;DHT22;16702;50.898;4.662;2022-09-20T01:29:09;14.70;99.90
29803;DHT22;16702;50.898;4.662;2022-09-20T01:31:45;14.70;99.90
29803;DHT22;16702;50.898;4.662;2022-09-20T01:34:22;14.60;99.90
29803;DHT22;16702;50.898;4.662;2022-09-20T01:36:57;14.70;99.90
29803;DHT22;16702;50.898;4.662;2022-09-20T01:39:35;14.70;99.90
29803;DHT22;16702;50.898;4.662;2022-09-20T01:42:10;14.70;99.90
29803;DHT22;16702;50.898;4.662;2022-09-20T01:44:50;14.70;99.90
29803;DHT22;16702;50.898;4.662;2022-09-20T01:47:31;14.70;99.90
29803;DHT22;16702;50.898;4.662;2022-09-20T01:50:13;14.70;99.90
29803;DHT22;16702;50.898;4.662;2022-09-20T01:53:27;14.70;99.90
29803;DHT22;16702;50.898;4.662;2022-09-20T01:56:22;14.70;99.90
29803;DHT22;16702;50.898;4.662;2022-09-20T02:02:12;14.70;99.90
29803;DHT22;16702;50.898;4.662;2022-09-20T02:05:15;14.80;99.90
29803;DHT22;16702;50.898;4.662;2022-09-20T02:08:07;14.80;99.90
29803;DHT22;16702;50.898;4.662;2022-09-20T02:10:49;14.70;99.90
29803;DHT22;16702;50.898;4.662;2022-09-20T02:13:28;14.70;99.90
29803;DHT22;16702;50.898;4.662;2022-09-20T02:19:26;14.80;99.90
29803;DHT22;16702;50.898;4.662;2022-09-20T02:22:09;14.70;99.90
29803;DHT22;16702;50.898;4.662;2022-09-20T02:24:57;14.80;99.90
29803;DHT22;16702;50.898;4.662;2022-09-20T02:27:38;14.70;99.90
29803;DHT22;16702;50.898;4.662;2022-09-20T02:30:18;14.70;99.90
29803;DHT22;16702;50.898;4.662;2022-09-20T02:33:10;14.80;99.90
29803;DHT22;16702;50.898;4.662;2022-09-20T02:35:55;14.70;99.90
29803;DHT22;16702;50.898;4.662;2022-09-20T02:38:40;14.70;99.90
29803;DHT22;16702;50.898;4.662;2022-09-20T02:41:33;14.70;99.90
29803;DHT22;16702;50.898;4.662;2022-09-20T02:44:14;14.80;99.90
29803;DHT22;16702;50.898;4.662;2022-09-20T02:46:52;14.70;99.90
29803;DHT22;16702;50.898;4.662;2022-09-20T02:49:29;14.70;99.90
29803;DHT22;16702;50.898;4.662;2022-09-20T02:52:14;14.60;99.90
29803;DHT22;16702;50.898;4.662;2022-09-20T02:54:51;14.70;99.90
29803;DHT22;16702;50.898;4.662;2022-09-20T02:57:29;14.70;99.90
29803;DHT22;16702;50.898;4.662;2022-09-20T03:00:05;14.70;99.90
29803;DHT22;16702;50.898;4.662;2022-09-20T03:02:48;14.70;99.90
29803;DHT22;16702;50.898;4.662;2022-09-20T03:05:23;14.70;99.90
29803;DHT22;16702;50.898;4.662;2022-09-20T03:08:14;14.70;99.90
29803;DHT22;16702;50.898;4.662;2022-09-20T03:10:53;14.60;99.90
29803;DHT22;16702;50.898;4.662;2022-09-20T03:13:28;14.60;99.90
29803;DHT22;16702;50.898;4.662;2022-09-20T03:16:11;14.70;99.90
29803;DHT22;16702;50.898;4.662;2022-09-20T03:18:52;14.50;99.90
29803;DHT22;16702;50.898;4.662;2022-09-20T03:21:36;14.60;99.90
29803;DHT22;16702;50.898;4.662;2022-09-20T03:24:19;14.60;99.90
29803;DHT22;16702;50.898;4.662;2022-09-20T03:26:55;14.60;99.90
29803;DHT22;16702;50.898;4.662;2022-09-20T03:29:39;14.60;99.90
29803;DHT22;16702;50.898;4.662;2022-09-20T03:32:25;14.60;99.90
29803;DHT22;16702;50.898;4.662;2022-09-20T03:35:04;14.60;99.90
29803;DHT22;16702;50.898;4.662;2022-09-20T03:37:56;14.50;99.90
29803;DHT22;16702;50.898;4.662;2022-09-20T03:40:51;14.60;99.90
29803;DHT22;16702;50.898;4.662;2022-09-20T03:43:37;14.60;99.90
29803;DHT22;16702;50.898;4.662;2022-09-20T03:46:16;14.60;99.90
29803;DHT22;16702;50.898;4.662;2022-09-20T03:49:23;14.60;99.90
29803;DHT22;16702;50.898;4.662;2022-09-20T03:52:04;14.60;99.90
29803;DHT22;16702;50.898;4.662;2022-09-20T03:55:13;14.60;99.90
29803;DHT22;16702;50.898;4.662;2022-09-20T03:57:54;14.60;99.90
29803;DHT22;16702;50.898;4.662;2022-09-20T04:00:38;14.60;99.90
29803;DHT22;16702;50.898;4.662;2022-09-20T04:03:30;14.60;99.90
29803;DHT22;16702;50.898;4.662;2022-09-20T04:09:26;14.60;99.90
29803;DHT22;16702;50.898;4.662;2022-09-20T04:12:04;14.60;99.90
29803;DHT22;16702;50.898;4.662;2022-09-20T04:14:44;14.50;99.90
29803;DHT22;16702;50.898;4.662;2022-09-20T04:17:26;14.60;99.90
29803;DHT22;16702;50.898;4.662;2022-09-20T04:20:03;14.70;99.90
29803;DHT22;16702;50.898;4.662;2022-09-20T04:22:35;14.50;99.90
29803;DHT22;16702;50.898;4.662;2022-09-20T04:25:13;14.50;99.90
29803;DHT22;16702;50.898;4.662;2022-09-20T04:27:47;14.50;99.90
29803;DHT22;16702;50.898;4.662;2022-09-20T04:30:24;14.50;99.90
29803;DHT22;16702;50.898;4.662;2022-09-20T04:32:59;14.40;99.90
29803;DHT22;16702;50.898;4.662;2022-09-20T04:35:41;14.50;99.90
29803;DHT22;16702;50.898;4.662;2022-09-20T04:38:26;14.50;99.90
29803;DHT22;16702;50.898;4.662;2022-09-20T04:44:26;14.50;99.90
29803;DHT22;16702;50.898;4.662;2022-09-20T04:47:40;14.50;99.90
29803;DHT22;16702;50.898;4.662;2022-09-20T04:53:43;14.30;99.90
29803;DHT22;16702;50.898;4.662;2022-09-20T04:56:20;14.40;99.90
29803;DHT22;16702;50.898;4.662;2022-09-20T04:59:05;14.40;99.90
29803;DHT22;16702;50.898;4.662;2022-09-20T05:11:31;14.50;99.90
29803;DHT22;16702;50.898;4.662;2022-09-20T05:14:34;14.50;99.90
29803;DHT22;16702;50.898;4.662;2022-09-20T05:17:23;14.50;99.90
29803;DHT22;16702;50.898;4.662;2022-09-20T05:20:22;14.50;99.90
29803;DHT22;16702;50.898;4.662;2022-09-20T05:23:16;14.50;99.90
29803;DHT22;16702;50.898;4.662;2022-09-20T05:25:58;14.50;99.90
29803;DHT22;16702;50.898;4.662;2022-09-20T05:28:44;14.40;99.90
29803;DHT22;16702;50.898;4.662;2022-09-20T05:31:23;14.40;99.90
29803;DHT22;16702;50.898;4.662;2022-09-20T05:34:01;14.30;99.90
29803;DHT22;16702;50.898;4.662;2022-09-20T05:36:42;14.30;99.90
29803;DHT22;16702;50.898;4.662;2022-09-20T05:39:32;14.30;99.90
29803;DHT22;16702;50.898;4.662;2022-09-20T05:42:16;14.30;99.90
29803;DHT22;16702;50.898;4.662;2022-09-20T05:45:03;14.20;99.90
29803;DHT22;16702;50.898;4.662;2022-09-20T05:47:43;14.20;99.90
29803;DHT22;16702;50.898;4.662;2022-09-20T05:50:18;14.10;99.90
29803;DHT22;16702;50.898;4.662;2022-09-20T05:52:56;14.20;99.90
29803;DHT22;16702;50.898;4.662;2022-09-20T05:55:45;14.20;99.90
29803;DHT22;16702;50.898;4.662;2022-09-20T05:58:30;14.20;99.90
29803;DHT22;16702;50.898;4.662;2022-09-20T06:01:12;14.20;99.90
29803;DHT22;16702;50.898;4.662;2022-09-20T06:03:46;14.10;99.90
29803;DHT22;16702;50.898;4.662;2022-09-20T06:06:27;14.10;99.90
29803;DHT22;16702;50.898;4.662;2022-09-20T06:09:31;14.10;99.90
29803;DHT22;16702;50.898;4.662;2022-09-20T06:12:30;14.10;99.90
29803;DHT22;16702;50.898;4.662;2022-09-20T06:15:13;14.10;99.90
29803;DHT22;16702;50.898;4.662;2022-09-20T06:17:56;14.10;99.90
29803;DHT22;16702;50.898;4.662;2022-09-20T06:20:32;14.10;99.90
29803;DHT22;16702;50.898;4.662;2022-09-20T06:23:05;14.10;99.90
29803;DHT22;16702;50.898;4.662;2022-09-20T06:25:41;14.10;99.90
29803;DHT22;16702;50.898;4.662;2022-09-20T06:28:16;14.10;99.90
29803;DHT22;16702;50.898;4.662;2022-09-20T06:30:49;14.10;99.90
29803;DHT22;16702;50.898;4.662;2022-09-20T06:33:24;14.20;99.90
29803;DHT22;16702;50.898;4.662;2022-09-20T06:35:57;14.10;99.90
29803;DHT22;16702;50.898;4.662;2022-09-20T06:38:54;14.20;99.90
29803;DHT22;16702;50.898;4.662;2022-09-20T06:41:40;14.20;99.90
29803;DHT22;16702;50.898;4.662;2022-09-20T06:44:11;14.20;99.90
29803;DHT22;16702;50.898;4.662;2022-09-20T06:46:41;14.20;99.90
29803;DHT22;16702;50.898;4.662;2022-09-20T06:49:14;14.20;99.90
29803;DHT22;16702;50.898;4.662;2022-09-20T06:51:45;14.20;99.90
29803;DHT22;16702;50.898;4.662;2022-09-20T06:54:18;14.20;99.90
29803;DHT22;16702;50.898;4.662;2022-09-20T06:56:50;14.20;99.90
29803;DHT22;16702;50.898;4.662;2022-09-20T06:59:21;14.20;99.90
29803;DHT22;16702;50.898;4.662;2022-09-20T07:01:51;14.20;99.90
29803;DHT22;16702;50.898;4.662;2022-09-20T07:04:24;14.20;99.90
29803;DHT22;16702;50.898;4.662;2022-09-20T07:06:59;14.20;99.90
29803;DHT22;16702;50.898;4.662;2022-09-20T07:09:35;14.30;99.90
29803;DHT22;16702;50.898;4.662;2022-09-20T07:12:06;14.30;99.90
29803;DHT22;16702;50.898;4.662;2022-09-20T07:14:38;14.30;99.90
29803;DHT22;16702;50.898;4.662;2022-09-20T07:17:09;14.40;99.90
29803;DHT22;16702;50.898;4.662;2022-09-20T07:19:42;14.40;99.90
29803;DHT22;16702;50.898;4.662;2022-09-20T07:22:13;14.30;99.90
29803;DHT22;16702;50.898;4.662;2022-09-20T07:24:43;14.40;99.90
29803;DHT22;16702;50.898;4.662;2022-09-20T07:27:14;14.30;99.90
29803;DHT22;16702;50.898;4.662;2022-09-20T07:29:45;14.30;99.90
29803;DHT22;16702;50.898;4.662;2022-09-20T07:32:15;14.30;99.90
29803;DHT22;16702;50.898;4.662;2022-09-20T07:34:48;14.30;99.90
29803;DHT22;16702;50.898;4.662;2022-09-20T07:37:19;14.40;99.90
29803;DHT22;16702;50.898;4.662;2022-09-20T07:39:49;14.40;99.90
29803;DHT22;16702;50.898;4.662;2022-09-20T07:42:20;14.40;99.90
29803;DHT22;16702;50.898;4.662;2022-09-20T07:44:50;14.50;99.90
29803;DHT22;16702;50.898;4.662;2022-09-20T07:47:22;14.50;99.90
29803;DHT22;16702;50.898;4.662;2022-09-20T07:49:55;14.50;99.90
29803;DHT22;16702;50.898;4.662;2022-09-20T07:52:26;14.60;99.90
29803;DHT22;16702;50.898;4.662;2022-09-20T07:54:56;14.70;99.90
29803;DHT22;16702;50.898;4.662;2022-09-20T07:57:27;14.60;99.90
29803;DHT22;16702;50.898;4.662;2022-09-20T07:59:57;14.60;99.90
29803;DHT22;16702;50.898;4.662;2022-09-20T08:02:28;14.60;99.90
29803;DHT22;16702;50.898;4.662;2022-09-20T08:05:01;14.70;99.90
29803;DHT22;16702;50.898;4.662;2022-09-20T08:07:32;14.70;99.90
29803;DHT22;16702;50.898;4.662;2022-09-20T08:10:03;14.70;99.90
29803;DHT22;16702;50.898;4.662;2022-09-20T08:12:33;14.70;99.90
29803;DHT22;16702;50.898;4.662;2022-09-20T08:15:24;14.80;99.90
29803;DHT22;16702;50.898;4.662;2022-09-20T08:17:55;14.90;99.90
29803;DHT22;16702;50.898;4.662;2022-09-20T08:20:28;14.90;99.90
29803;DHT22;16702;50.898;4.662;2022-09-20T08:22:59;14.90;99.90
29803;DHT22;16702;50.898;4.662;2022-09-20T08:25:49;14.90;99.90
29803;DHT22;16702;50.898;4.662;2022-09-20T08:28:19;14.90;99.90
29803;DHT22;16702;50.898;4.662;2022-09-20T08:30:50;14.90;99.90
29803;DHT22;16702;50.898;4.662;2022-09-20T08:33:20;14.90;99.90
29803;DHT22;16702;50.898;4.662;2022-09-20T08:35:53;15.00;99.90
29803;DHT22;16702;50.898;4.662;2022-09-20T08:38:24;15.00;99.90
29803;DHT22;16702;50.898;4.662;2022-09-20T08:41:20;14.90;99.90
29803;DHT22;16702;50.898;4.662;2022-09-20T08:43:54;14.90;99.90
29803;DHT22;16702;50.898;4.662;2022-09-20T08:46:29;15.00;99.90
29803;DHT22;16702;50.898;4.662;2022-09-20T08:49:03;14.90;99.90
29803;DHT22;16702;50.898;4.662;2022-09-20T08:51:41;15.00;99.90
29803;DHT22;16702;50.898;4.662;2022-09-20T08:54:15;14.90;99.90
29803;DHT22;16702;50.898;4.662;2022-09-20T08:56:46;15.00;99.90
29803;DHT22;16702;50.898;4.662;2022-09-20T08:59:19;15.10;99.90
29803;DHT22;16702;50.898;4.662;2022-09-20T09:01:52;15.10;99.90
29803;DHT22;16702;50.898;4.662;2022-09-20T09:13:03;15.10;99.90
29803;DHT22;16702;50.898;4.662;2022-09-20T09:15:35;15.20;99.90
29803;DHT22;16702;50.898;4.662;2022-09-20T09:18:09;15.20;99.90
29803;DHT22;16702;50.898;4.662;2022-09-20T09:20:41;15.30;99.90
29803;DHT22;16702;50.898;4.662;2022-09-20T09:23:22;15.40;99.90
29803;DHT22;16702;50.898;4.662;2022-09-20T09:25:54;15.50;99.90
29803;DHT22;16702;50.898;4.662;2022-09-20T09:28:27;15.60;99.90
29803;DHT22;16702;50.898;4.662;2022-09-20T09:31:22;15.60;99.90
29803;DHT22;16702;50.898;4.662;2022-09-20T09:33:53;15.60;99.90
29803;DHT22;16702;50.898;4.662;2022-09-20T09:36:25;15.60;99.90
29803;DHT22;16702;50.898;4.662;2022-09-20T09:39:13;15.60;99.90
29803;DHT22;16702;50.898;4.662;2022-09-20T09:41:44;15.60;99.90
29803;DHT22;16702;50.898;4.662;2022-09-20T09:44:25;15.60;99.90
29803;DHT22;16702;50.898;4.662;2022-09-20T09:46:56;15.60;99.90
29803;DHT22;16702;50.898;4.662;2022-09-20T09:49:28;15.80;99.90
29803;DHT22;16702;50.898;4.662;2022-09-20T09:52:05;15.90;99.90
29803;DHT22;16702;50.898;4.662;2022-09-20T09:54:44;16.00;99.90
29803;DHT22;16702;50.898;4.662;2022-09-20T09:57:38;15.90;99.90
29803;DHT22;16702;50.898;4.662;2022-09-20T10:00:19;16.10;99.90
29803;DHT22;16702;50.898;4.662;2022-09-20T10:03:06;16.10;99.90
29803;DHT22;16702;50.898;4.662;2022-09-20T10:05:46;16.10;99.90
29803;DHT22;16702;50.898;4.662;2022-09-20T10:08:30;16.10;99.90
29803;DHT22;16702;50.898;4.662;2022-09-20T10:11:16;16.20;99.90
29803;DHT22;16702;50.898;4.662;2022-09-20T10:13:59;16.10;99.90
29803;DHT22;16702;50.898;4.662;2022-09-20T10:16:50;16.20;99.90
29803;DHT22;16702;50.898;4.662;2022-09-20T10:19:38;16.10;99.90
29803;DHT22;16702;50.898;4.662;2022-09-20T10:22:16;16.20;99.90
29803;DHT22;16702;50.898;4.662;2022-09-20T10:24:51;16.20;99.90
29803;DHT22;16702;50.898;4.662;2022-09-20T10:27:35;16.30;99.90
29803;DHT22;16702;50.898;4.662;2022-09-20T10:30:11;16.30;99.90
29803;DHT22;16702;50.898;4.662;2022-09-20T10:32:55;16.20;99.90
29803;DHT22;16702;50.898;4.662;2022-09-20T10:35:34;16.30;99.90
29803;DHT22;16702;50.898;4.662;2022-09-20T10:38:14;16.40;99.90
29803;DHT22;16702;50.898;4.662;2022-09-20T10:41:02;16.30;99.90
29803;DHT22;16702;50.898;4.662;2022-09-20T10:43:55;16.20;99.90
29803;DHT22;16702;50.898;4.662;2022-09-20T10:49:35;16.20;99.90
29803;DHT22;16702;50.898;4.662;2022-09-20T10:52:26;16.30;99.90
29803;DHT22;16702;50.898;4.662;2022-09-20T10:55:19;16.20;99.90
29803;DHT22;16702;50.898;4.662;2022-09-20T10:58:05;16.30;99.90
29803;DHT22;16702;50.898;4.662;2022-09-20T11:00:44;16.30;99.90
29803;DHT22;16702;50.898;4.662;2022-09-20T11:03:27;16.40;99.90
29803;DHT22;16702;50.898;4.662;2022-09-20T11:06:13;16.50;99.90
29803;DHT22;16702;50.898;4.662;2022-09-20T11:08:46;16.50;99.90
29803;DHT22;16702;50.898;4.662;2022-09-20T11:11:24;16.50;99.90
29803;DHT22;16702;50.898;4.662;2022-09-20T11:14:02;16.50;99.90
29803;DHT22;16702;50.898;4.662;2022-09-20T11:16:37;16.60;99.90
29803;DHT22;16702;50.898;4.662;2022-09-20T11:19:16;16.70;99.90
29803;DHT22;16702;50.898;4.662;2022-09-20T11:21:55;16.70;99.90
29803;DHT22;16702;50.898;4.662;2022-09-20T11:24:30;16.70;99.90
29803;DHT22;16702;50.898;4.662;2022-09-20T11:27:08;16.80;99.90
29803;DHT22;16702;50.898;4.662;2022-09-20T11:29:44;16.90;99.90
29803;DHT22;16702;50.898;4.662;2022-09-20T11:32:21;17.00;99.90
29803;DHT22;16702;50.898;4.662;2022-09-20T11:34:56;17.00;99.90
29803;DHT22;16702;50.898;4.662;2022-09-20T11:37:34;17.00;99.90
29803;DHT22;16702;50.898;4.662;2022-09-20T11:40:13;17.00;99.90
29803;DHT22;16702;50.898;4.662;2022-09-20T11:42:45;16.90;99.90
29803;DHT22;16702;50.898;4.662;2022-09-20T11:45:16;17.00;99.90
29803;DHT22;16702;50.898;4.662;2022-09-20T11:47:53;17.00;99.90
29803;DHT22;16702;50.898;4.662;2022-09-20T11:53:49;17.00;99.90
29803;DHT22;16702;50.898;4.662;2022-09-20T11:56:26;16.90;99.90
29803;DHT22;16702;50.898;4.662;2022-09-20T11:59:00;17.10;99.90
29803;DHT22;16702;50.898;4.662;2022-09-20T12:01:34;17.10;99.90
29803;DHT22;16702;50.898;4.662;2022-09-20T12:04:10;17.10;99.90
29803;DHT22;16702;50.898;4.662;2022-09-20T12:07:02;17.20;99.90
29803;DHT22;16702;50.898;4.662;2022-09-20T12:09:43;17.00;99.90
29803;DHT22;16702;50.898;4.662;2022-09-20T12:12:22;17.20;99.90
29803;DHT22;16702;50.898;4.662;2022-09-20T12:14:57;17.20;99.90
29803;DHT22;16702;50.898;4.662;2022-09-20T12:24:20;17.40;99.90
29803;DHT22;16702;50.898;4.662;2022-09-20T12:26:56;17.40;99.90
29803;DHT22;16702;50.898;4.662;2022-09-20T12:29:52;17.50;99.90
29803;DHT22;16702;50.898;4.662;2022-09-20T12:32:41;17.50;99.90
29803;DHT22;16702;50.898;4.662;2022-09-20T12:38:30;17.40;99.90
29803;DHT22;16702;50.898;4.662;2022-09-20T12:41:09;17.40;99.90
29803;DHT22;16702;50.898;4.662;2022-09-20T12:44:19;17.50;99.90
29803;DHT22;16702;50.898;4.662;2022-09-20T12:46:53;17.40;99.90
29803;DHT22;16702;50.898;4.662;2022-09-20T12:49:35;17.40;99.90
29803;DHT22;16702;50.898;4.662;2022-09-20T12:52:48;17.50;99.90
29803;DHT22;16702;50.898;4.662;2022-09-20T12:55:38;17.50;99.90
29803;DHT22;16702;50.898;4.662;2022-09-20T12:58:33;17.50;99.90
29803;DHT22;16702;50.898;4.662;2022-09-20T13:01:30;17.50;99.90
29803;DHT22;16702;50.898;4.662;2022-09-20T13:07:31;18.00;99.90
29803;DHT22;16702;50.898;4.662;2022-09-20T13:13:18;17.90;99.90
29803;DHT22;16702;50.898;4.662;2022-09-20T13:15:53;17.90;99.90
29803;DHT22;16702;50.898;4.662;2022-09-20T13:18:27;17.90;99.90
29803;DHT22;16702;50.898;4.662;2022-09-20T13:20:58;17.90;99.90
29803;DHT22;16702;50.898;4.662;2022-09-20T13:23:42;17.80;99.90
29803;DHT22;16702;50.898;4.662;2022-09-20T13:26:15;17.90;99.90
29803;DHT22;16702;50.898;4.662;2022-09-20T13:28:51;18.00;99.90
29803;DHT22;16702;50.898;4.662;2022-09-20T13:31:25;17.90;99.90
29803;DHT22;16702;50.898;4.662;2022-09-20T13:34:14;17.60;99.90
29803;DHT22;16702;50.898;4.662;2022-09-20T13:36:49;17.90;99.90
29803;DHT22;16702;50.898;4.662;2022-09-20T13:39:30;17.90;99.90
29803;DHT22;16702;50.898;4.662;2022-09-20T13:42:04;17.90;99.90
29803;DHT22;16702;50.898;4.662;2022-09-20T13:44:38;17.90;99.90
29803;DHT22;16702;50.898;4.662;2022-09-20T13:47:25;17.90;99.90
29803;DHT22;16702;50.898;4.662;2022-09-20T13:50:14;17.90;99.90
29803;DHT22;16702;50.898;4.662;2022-09-20T13:52:47;17.90;99.90
29803;DHT22;16702;50.898;4.662;2022-09-20T13:55:24;18.00;99.90
29803;DHT22;16702;50.898;4.662;2022-09-20T13:57:58;17.80;99.90
29803;DHT22;16702;50.898;4.662;2022-09-20T14:00:30;17.90;99.90
29803;DHT22;16702;50.898;4.662;2022-09-20T14:03:01;17.90;99.90
29803;DHT22;16702;50.898;4.662;2022-09-20T14:05:34;17.90;99.90
29803;DHT22;16702;50.898;4.662;2022-09-20T14:08:05;18.00;99.90
29803;DHT22;16702;50.898;4.662;2022-09-20T14:10:37;18.00;99.90
29803;DHT22;16702;50.898;4.662;2022-09-20T14:13:14;18.00;99.90
29803;DHT22;16702;50.898;4.662;2022-09-20T14:15:46;17.90;99.90
29803;DHT22;16702;50.898;4.662;2022-09-20T14:18:18;17.90;99.90
29803;DHT22;16702;50.898;4.662;2022-09-20T14:20:54;17.90;99.90
29803;DHT22;16702;50.898;4.662;2022-09-20T14:23:26;17.90;99.90
29803;DHT22;16702;50.898;4.662;2022-09-20T14:26:19;17.90;99.90
29803;DHT22;16702;50.898;4.662;2022-09-20T14:28:51;17.80;99.90
29803;DHT22;16702;50.898;4.662;2022-09-20T14:31:24;17.90;99.90
29803;DHT22;16702;50.898;4.662;2022-09-20T14:33:58;17.80;99.90
29803;DHT22;16702;50.898;4.662;2022-09-20T14:36:32;17.90;99.90
29803;DHT22;16702;50.898;4.662;2022-09-20T14:39:04;18.20;99.90
29803;DHT22;16702;50.898;4.662;2022-09-20T14:41:36;18.30;99.90
29803;DHT22;16702;50.898;4.662;2022-09-20T14:44:22;18.20;99.90
29803;DHT22;16702;50.898;4.662;2022-09-20T14:46:55;17.90;99.90
29803;DHT22;16702;50.898;4.662;2022-09-20T14:49:31;18.00;99.90
29803;DHT22;16702;50.898;4.662;2022-09-20T14:55:17;17.90;99.90
29803;DHT22;16702;50.898;4.662;2022-09-20T14:57:59;17.80;99.90
29803;DHT22;16702;50.898;4.662;2022-09-20T15:00:46;17.70;99.90
29803;DHT22;16702;50.898;4.662;2022-09-20T15:03:23;17.80;99.90
29803;DHT22;16702;50.898;4.662;2022-09-20T15:05:54;17.80;99.90
29803;DHT22;16702;50.898;4.662;2022-09-20T15:08:25;17.80;99.90
29803;DHT22;16702;50.898;4.662;2022-09-20T15:10:59;17.80;99.90
29803;DHT22;16702;50.898;4.662;2022-09-20T15:13:29;17.90;99.90
29803;DHT22;16702;50.898;4.662;2022-09-20T15:16:02;17.90;99.90
29803;DHT22;16702;50.898;4.662;2022-09-20T15:18:38;17.80;99.90
29803;DHT22;16702;50.898;4.662;2022-09-20T15:21:10;17.70;99.90
29803;DHT22;16702;50.898;4.662;2022-09-20T15:23:40;17.80;99.90
29803;DHT22;16702;50.898;4.662;2022-09-20T15:26:14;17.60;99.90
29803;DHT22;16702;50.898;4.662;2022-09-20T15:28:45;17.40;99.90
29803;DHT22;16702;50.898;4.662;2022-09-20T15:31:15;17.50;99.90
29803;DHT22;16702;50.898;4.662;2022-09-20T15:33:47;17.70;99.90
29803;DHT22;16702;50.898;4.662;2022-09-20T15:36:17;17.60;99.90
29803;DHT22;16702;50.898;4.662;2022-09-20T15:38:48;17.60;99.90
29803;DHT22;16702;50.898;4.662;2022-09-20T15:41:21;17.70;99.90
29803;DHT22;16702;50.898;4.662;2022-09-20T15:43:57;17.70;99.90
29803;DHT22;16702;50.898;4.662;2022-09-20T15:46:28;17.60;99.90
29803;DHT22;16702;50.898;4.662;2022-09-20T15:48:59;17.90;99.90
29803;DHT22;16702;50.898;4.662;2022-09-20T15:51:30;17.80;99.90
29803;DHT22;16702;50.898;4.662;2022-09-20T15:54:04;18.10;99.90
29803;DHT22;16702;50.898;4.662;2022-09-20T15:56:38;18.00;99.90
29803;DHT22;16702;50.898;4.662;2022-09-20T15:59:10;18.10;99.90
29803;DHT22;16702;50.898;4.662;2022-09-20T16:01:43;18.00;99.90
29803;DHT22;16702;50.898;4.662;2022-09-20T16:04:16;17.90;99.90
29803;DHT22;16702;50.898;4.662;2022-09-20T16:06:48;17.90;99.90
29803;DHT22;16702;50.898;4.662;2022-09-20T16:09:19;17.90;99.90
29803;DHT22;16702;50.898;4.662;2022-09-20T16:11:52;17.90;99.90
29803;DHT22;16702;50.898;4.662;2022-09-20T16:14:25;17.80;99.90
29803;DHT22;16702;50.898;4.662;2022-09-20T16:16:55;17.60;99.90
29803;DHT22;16702;50.898;4.662;2022-09-20T16:19:26;17.70;99.90
29803;DHT22;16702;50.898;4.662;2022-09-20T16:21:55;17.60;99.90
29803;DHT22;16702;50.898;4.662;2022-09-20T16:24:27;17.60;99.90
29803;DHT22;16702;50.898;4.662;2022-09-20T16:27:03;17.60;99.90
29803;DHT22;16702;50.898;4.662;2022-09-20T16:29:35;17.60;99.90
29803;DHT22;16702;50.898;4.662;2022-09-20T16:32:05;17.70;99.90
29803;DHT22;16702;50.898;4.662;2022-09-20T16:34:36;17.60;99.90
29803;DHT22;16702;50.898;4.662;2022-09-20T16:37:09;17.60;99.90
29803;DHT22;16702;50.898;4.662;2022-09-20T16:39:42;17.50;99.90
29803;DHT22;16702;50.898;4.662;2022-09-20T16:42:15;17.60;99.90
29803;DHT22;16702;50.898;4.662;2022-09-20T16:44:46;17.60;99.90
29803;DHT22;16702;50.898;4.662;2022-09-20T16:47:18;17.50;99.90
29803;DHT22;16702;50.898;4.662;2022-09-20T16:49:51;17.50;99.90
29803;DHT22;16702;50.898;4.662;2022-09-20T16:52:22;17.50;99.90
29803;DHT22;16702;50.898;4.662;2022-09-20T16:54:53;17.50;99.90
29803;DHT22;16702;50.898;4.662;2022-09-20T16:57:26;17.60;99.90
29803;DHT22;16702;50.898;4.662;2022-09-20T16:59:58;17.60;99.90
29803;DHT22;16702;50.898;4.662;2022-09-20T17:02:28;17.50;99.90
29803;DHT22;16702;50.898;4.662;2022-09-20T17:04:59;17.50;99.90
29803;DHT22;16702;50.898;4.662;2022-09-20T17:07:29;17.50;99.90
29803;DHT22;16702;50.898;4.662;2022-09-20T17:10:00;17.50;99.90
29803;DHT22;16702;50.898;4.662;2022-09-20T17:12:33;17.40;99.90
29803;DHT22;16702;50.898;4.662;2022-09-20T17:15:08;17.40;99.90
29803;DHT22;16702;50.898;4.662;2022-09-20T17:17:40;17.30;99.90
29803;DHT22;16702;50.898;4.662;2022-09-20T17:20:10;17.30;99.90
29803;DHT22;16702;50.898;4.662;2022-09-20T17:22:40;17.20;99.90
29803;DHT22;16702;50.898;4.662;2022-09-20T17:25:11;17.30;99.90
29803;DHT22;16702;50.898;4.662;2022-09-20T17:27:44;17.30;99.90
29803;DHT22;16702;50.898;4.662;2022-09-20T17:30:15;17.30;99.90
29803;DHT22;16702;50.898;4.662;2022-09-20T17:32:45;17.20;99.90
29803;DHT22;16702;50.898;4.662;2022-09-20T17:35:16;17.20;99.90
29803;DHT22;16702;50.898;4.662;2022-09-20T17:37:47;17.20;99.90